createdAt,value
2023-01-15T00:00:54.327Z,0.00
2023-01-15T00:01:54.289Z,0.00
2023-01-15T00:02:54.354Z,0.00
2023-01-15T00:03:54.305Z,0.00
2023-01-15T00:04:54.279Z,0.00
2023-01-15T00:05:54.267Z,0.00
2023-01-15T00:06:54.259Z,0.00
2023-01-15T00:07:54.221Z,0.00
2023-01-15T00:08:54.222Z,0.00
2023-01-15T00:09:54.207Z,0.00
2023-01-15T00:10:54.219Z,0.00
2023-01-15T00:11:54.185Z,0.00
2023-01-15T00:12:54.177Z,0.00
2023-01-15T00:13:54.162Z,0.00
2023-01-15T00:14:54.157Z,0.00
2023-01-15T00:15:54.231Z,0.00
2023-01-15T00:16:54.147Z,0.00
2023-01-15T00:17:54.118Z,0.00
2023-01-15T00:18:54.107Z,0.00
2023-01-15T00:19:54.095Z,0.00
2023-01-15T00:20:54.091Z,0.00
2023-01-15T00:21:54.276Z,0.00
2023-01-15T00:22:54.070Z,0.00
2023-01-15T00:23:54.072Z,0.00
2023-01-15T00:24:54.062Z,0.00
2023-01-15T00:25:54.036Z,0.00
2023-01-15T00:26:54.040Z,0.00
2023-01-15T00:27:54.017Z,0.00
2023-01-15T00:28:54.020Z,0.00
2023-01-15T00:29:54.001Z,0.00
2023-01-15T00:30:54.018Z,0.00
2023-01-15T00:31:53.963Z,0.00
2023-01-15T00:32:53.964Z,0.00
2023-01-15T00:33:53.971Z,0.00
2023-01-15T00:34:53.956Z,0.00
2023-01-15T00:35:53.916Z,0.00
2023-01-15T00:36:53.915Z,0.00
2023-01-15T00:37:53.921Z,0.00
2023-01-15T00:38:53.908Z,0.00
2023-01-15T00:39:53.889Z,0.00
2023-01-15T00:40:53.880Z,0.00
2023-01-15T00:41:53.855Z,0.00
2023-01-15T00:42:54.715Z,0.00
2023-01-15T00:43:53.861Z,0.00
2023-01-15T00:44:53.846Z,0.00
2023-01-15T00:45:53.809Z,0.00
2023-01-15T00:46:53.815Z,0.00
2023-01-15T00:47:53.787Z,0.00
2023-01-15T00:48:53.794Z,0.00
2023-01-15T00:49:53.789Z,0.00
2023-01-15T00:50:53.757Z,0.00
2023-01-15T00:51:53.743Z,0.00
2023-01-15T00:52:53.735Z,0.00
2023-01-15T00:53:53.732Z,0.00
2023-01-15T00:54:53.740Z,0.00
2023-01-15T00:55:53.702Z,0.00
2023-01-15T00:56:53.712Z,0.00
2023-01-15T00:57:53.675Z,0.00
2023-01-15T00:58:53.667Z,0.00
2023-01-15T00:59:53.678Z,0.00
2023-01-15T01:00:53.701Z,0.00
2023-01-15T01:01:53.817Z,0.00
2023-01-15T01:02:53.651Z,0.00
2023-01-15T01:03:53.610Z,0.00
2023-01-15T01:04:53.604Z,0.00
2023-01-15T01:05:53.595Z,0.00
2023-01-15T01:06:53.587Z,0.00
2023-01-15T01:07:53.593Z,0.00
2023-01-15T01:08:53.568Z,0.00
2023-01-15T01:09:53.563Z,0.00
2023-01-15T01:10:53.538Z,0.00
2023-01-15T01:11:53.546Z,0.00
2023-01-15T01:12:53.571Z,0.00
2023-01-15T01:13:53.505Z,0.00
2023-01-15T01:14:53.500Z,0.00
2023-01-15T01:15:53.528Z,0.00
2023-01-15T01:16:53.472Z,0.00
2023-01-15T01:17:53.491Z,0.00
2023-01-15T01:18:53.459Z,0.00
2023-01-15T01:19:53.446Z,0.00
2023-01-15T01:20:53.434Z,0.00
2023-01-15T01:21:53.421Z,0.00
2023-01-15T01:22:53.435Z,0.00
2023-01-15T01:23:53.398Z,0.00
2023-01-15T01:24:53.392Z,0.00
2023-01-15T01:25:53.370Z,0.00
2023-01-15T01:26:54.715Z,0.00
2023-01-15T01:27:53.373Z,0.00
2023-01-15T01:28:53.353Z,0.00
2023-01-15T01:29:53.336Z,0.00
2023-01-15T01:30:53.325Z,0.00
2023-01-15T01:31:53.321Z,0.00
2023-01-15T01:32:53.326Z,0.00
2023-01-15T01:33:53.291Z,0.00
2023-01-15T01:34:53.282Z,0.00
2023-01-15T01:35:53.274Z,0.00
2023-01-15T01:36:53.261Z,0.00
2023-01-15T01:37:53.274Z,0.00
2023-01-15T01:38:53.236Z,0.00
2023-01-15T01:39:53.232Z,0.00
2023-01-15T01:40:53.217Z,0.00
2023-01-15T01:41:53.206Z,0.00
2023-01-15T01:42:53.189Z,0.00
2023-01-15T01:43:53.208Z,0.00
2023-01-15T01:44:53.168Z,0.00
2023-01-15T01:45:53.240Z,0.00
2023-01-15T01:46:53.143Z,0.00
2023-01-15T01:47:53.144Z,0.00
2023-01-15T01:48:53.157Z,0.00
2023-01-15T01:49:53.116Z,0.00
2023-01-15T01:50:53.103Z,0.00
2023-01-15T01:51:53.099Z,0.00
2023-01-15T01:52:53.078Z,0.00
2023-01-15T01:53:53.086Z,0.00
2023-01-15T01:54:53.081Z,0.00
2023-01-15T01:55:53.054Z,0.00
2023-01-15T01:56:53.039Z,0.00
2023-01-15T01:57:53.030Z,0.00
2023-01-15T01:58:53.021Z,0.00
2023-01-15T01:59:53.035Z,0.00
2023-01-15T02:00:53.017Z,0.00
2023-01-15T02:01:53.129Z,0.00
2023-01-15T02:02:52.980Z,0.00
2023-01-15T02:03:52.966Z,0.00
2023-01-15T02:04:52.973Z,0.00
2023-01-15T02:05:52.948Z,0.00
2023-01-15T02:06:52.939Z,0.00
2023-01-15T02:07:52.917Z,0.00
2023-01-15T02:08:52.934Z,0.00
2023-01-15T02:09:52.923Z,0.00
2023-01-15T02:10:52.890Z,0.00
2023-01-15T02:11:52.881Z,0.00
2023-01-15T02:12:52.872Z,0.00
2023-01-15T02:13:52.854Z,0.00
2023-01-15T02:14:52.870Z,0.00
2023-01-15T02:15:52.832Z,0.00
2023-01-15T02:16:52.833Z,0.00
2023-01-15T02:17:52.813Z,0.00
2023-01-15T02:18:52.796Z,0.00
2023-01-15T02:19:52.804Z,0.00
2023-01-15T02:20:52.804Z,0.00
2023-01-15T02:21:52.765Z,0.00
2023-01-15T02:22:52.752Z,0.00
2023-01-15T02:23:52.753Z,0.00
2023-01-15T02:24:52.758Z,0.00
2023-01-15T02:25:52.727Z,0.00
2023-01-15T02:26:52.714Z,0.00
2023-01-15T02:27:52.702Z,0.00
2023-01-15T02:28:52.690Z,0.00
2023-01-15T02:29:52.717Z,0.00
2023-01-15T02:30:52.689Z,0.00
2023-01-15T02:31:52.723Z,0.00
2023-01-15T02:32:52.659Z,0.00
2023-01-15T02:33:52.660Z,0.00
2023-01-15T02:34:52.645Z,0.00
2023-01-15T02:35:52.620Z,0.00
2023-01-15T02:36:52.605Z,0.00
2023-01-15T02:37:52.620Z,0.00
2023-01-15T02:38:52.587Z,0.00
2023-01-15T02:39:52.606Z,0.00
2023-01-15T02:40:52.566Z,0.00
2023-01-15T02:41:52.563Z,0.00
2023-01-15T02:42:52.537Z,0.00
2023-01-15T02:43:52.556Z,0.00
2023-01-15T02:44:52.513Z,0.00
2023-01-15T02:45:52.557Z,0.00
2023-01-15T02:46:52.514Z,0.00
2023-01-15T02:47:52.488Z,0.00
2023-01-15T02:48:52.470Z,0.00
2023-01-15T02:49:52.459Z,0.00
2023-01-15T02:50:52.448Z,0.00
2023-01-15T02:51:52.445Z,0.00
2023-01-15T02:52:52.456Z,0.00
2023-01-15T02:53:52.424Z,0.00
2023-01-15T02:54:52.403Z,0.00
2023-01-15T02:55:52.404Z,0.00
2023-01-15T02:56:52.383Z,0.00
2023-01-15T02:57:52.399Z,0.00
2023-01-15T02:58:52.363Z,0.00
2023-01-15T02:59:52.371Z,0.00
2023-01-15T03:00:52.474Z,0.00
2023-01-15T03:01:52.538Z,0.00
2023-01-15T03:02:52.444Z,0.00
2023-01-15T03:03:52.318Z,0.00
2023-01-15T03:04:52.296Z,0.00
2023-01-15T03:05:52.287Z,0.00
2023-01-15T03:06:52.312Z,0.00
2023-01-15T03:07:52.315Z,0.00
2023-01-15T03:08:52.252Z,0.00
2023-01-15T03:09:52.244Z,0.00
2023-01-15T03:10:52.230Z,0.00
2023-01-15T03:11:52.246Z,0.00
2023-01-15T03:12:52.237Z,0.00
2023-01-15T03:13:52.196Z,0.00
2023-01-15T03:14:52.192Z,0.00
2023-01-15T03:15:52.185Z,0.00
2023-01-15T03:16:52.228Z,0.00
2023-01-15T03:17:52.186Z,0.00
2023-01-15T03:18:52.155Z,0.00
2023-01-15T03:19:52.137Z,0.00
2023-01-15T03:20:52.119Z,0.00
2023-01-15T03:21:52.113Z,0.00
2023-01-15T03:22:52.117Z,0.00
2023-01-15T03:23:52.096Z,0.00
2023-01-15T03:24:52.085Z,0.00
2023-01-15T03:25:52.080Z,0.00
2023-01-15T03:26:52.061Z,0.00
2023-01-15T03:27:52.071Z,0.00
2023-01-15T03:28:52.038Z,0.00
2023-01-15T03:29:52.022Z,0.00
2023-01-15T03:30:52.112Z,0.00
2023-01-15T03:31:52.002Z,0.00
2023-01-15T03:32:52.017Z,0.00
2023-01-15T03:33:51.981Z,0.00
2023-01-15T03:34:51.989Z,0.00
2023-01-15T03:35:51.963Z,0.00
2023-01-15T03:36:51.954Z,0.00
2023-01-15T03:37:51.957Z,0.00
2023-01-15T03:38:51.928Z,0.00
2023-01-15T03:39:51.942Z,0.00
2023-01-15T03:40:51.913Z,0.00
2023-01-15T03:41:51.903Z,0.00
2023-01-15T03:42:51.890Z,0.00
2023-01-15T03:43:51.897Z,0.00
2023-01-15T03:44:51.934Z,0.00
2023-01-15T03:45:51.875Z,0.00
2023-01-15T03:46:51.849Z,0.00
2023-01-15T03:47:51.837Z,0.00
2023-01-15T03:48:51.850Z,0.00
2023-01-15T03:49:51.807Z,0.00
2023-01-15T03:50:51.823Z,0.00
2023-01-15T03:51:51.797Z,0.00
2023-01-15T03:52:51.778Z,0.00
2023-01-15T03:53:51.875Z,0.00
2023-01-15T03:54:51.759Z,0.00
2023-01-15T03:55:51.770Z,0.00
2023-01-15T03:56:51.735Z,0.00
2023-01-15T03:57:51.745Z,0.00
2023-01-15T03:58:51.713Z,0.00
2023-01-15T03:59:51.697Z,0.00
2023-01-15T04:00:51.717Z,0.00
2023-01-15T04:01:51.789Z,0.00
2023-01-15T04:02:51.716Z,0.00
2023-01-15T04:03:51.680Z,0.00
2023-01-15T04:04:51.650Z,0.00
2023-01-15T04:05:51.649Z,0.00
2023-01-15T04:06:51.627Z,0.00
2023-01-15T04:07:51.640Z,0.00
2023-01-15T04:08:51.607Z,0.00
2023-01-15T04:09:51.590Z,0.00
2023-01-15T04:10:51.584Z,0.00
2023-01-15T04:11:51.577Z,0.00
2023-01-15T04:12:51.600Z,0.00
2023-01-15T04:13:51.557Z,0.00
2023-01-15T04:14:51.540Z,0.00
2023-01-15T04:15:51.545Z,0.00
2023-01-15T04:16:51.518Z,0.00
2023-01-15T04:17:51.531Z,0.00
2023-01-15T04:18:51.514Z,0.00
2023-01-15T04:19:51.487Z,0.00
2023-01-15T04:20:51.480Z,0.00
2023-01-15T04:21:51.461Z,0.00
2023-01-15T04:22:51.468Z,0.00
2023-01-15T04:23:51.476Z,0.00
2023-01-15T04:24:51.439Z,0.00
2023-01-15T04:25:51.419Z,0.00
2023-01-15T04:26:51.414Z,0.00
2023-01-15T04:27:51.398Z,0.00
2023-01-15T04:28:51.418Z,0.00
2023-01-15T04:29:51.378Z,0.00
2023-01-15T04:30:51.383Z,0.00
2023-01-15T04:31:51.355Z,0.00
2023-01-15T04:32:51.363Z,0.00
2023-01-15T04:33:51.335Z,0.00
2023-01-15T04:34:51.325Z,0.00
2023-01-15T04:35:51.325Z,0.00
2023-01-15T04:36:51.313Z,0.00
2023-01-15T04:37:51.316Z,0.00
2023-01-15T04:38:51.286Z,0.00
2023-01-15T04:39:51.266Z,0.00
2023-01-15T04:40:51.284Z,0.00
2023-01-15T04:41:51.250Z,0.00
2023-01-15T04:42:51.244Z,0.00
2023-01-15T04:43:51.253Z,0.00
2023-01-15T04:44:51.239Z,0.00
2023-01-15T04:45:51.275Z,0.00
2023-01-15T04:46:51.206Z,0.00
2023-01-15T04:47:51.179Z,0.00
2023-01-15T04:48:51.198Z,0.00
2023-01-15T04:49:51.171Z,0.00
2023-01-15T04:50:51.176Z,0.00
2023-01-15T04:51:51.151Z,0.00
2023-01-15T04:52:51.133Z,0.00
2023-01-15T04:53:51.135Z,0.00
2023-01-15T04:54:51.134Z,0.00
2023-01-15T04:55:51.100Z,0.00
2023-01-15T04:56:51.093Z,0.00
2023-01-15T04:57:51.073Z,0.00
2023-01-15T04:58:51.096Z,0.00
2023-01-15T04:59:51.081Z,0.00
2023-01-15T05:00:51.047Z,0.00
2023-01-15T05:02:03.182Z,0.00
2023-01-15T05:02:52.020Z,0.00
2023-01-15T05:03:51.015Z,0.00
2023-01-15T05:04:51.137Z,0.00
2023-01-15T05:05:50.994Z,0.00
2023-01-15T05:06:51.008Z,0.00
2023-01-15T05:07:50.960Z,0.00
2023-01-15T05:08:50.959Z,0.00
2023-01-15T05:09:50.946Z,0.00
2023-01-15T05:10:50.940Z,0.00
2023-01-15T05:11:50.920Z,0.00
2023-01-15T05:12:50.936Z,0.00
2023-01-15T05:13:50.899Z,0.00
2023-01-15T05:14:50.891Z,0.00
2023-01-15T05:15:50.918Z,0.00
2023-01-15T05:16:50.883Z,0.00
2023-01-15T05:17:50.876Z,0.00
2023-01-15T05:18:50.852Z,0.00
2023-01-15T05:19:50.832Z,0.00
2023-01-15T05:20:50.825Z,0.00
2023-01-15T05:21:50.809Z,0.00
2023-01-15T05:22:50.828Z,0.00
2023-01-15T05:23:50.815Z,0.00
2023-01-15T05:24:50.782Z,0.00
2023-01-15T05:25:50.771Z,0.00
2023-01-15T05:26:50.759Z,0.00
2023-01-15T05:27:50.771Z,0.00
2023-01-15T05:28:50.745Z,0.00
2023-01-15T05:29:50.750Z,0.00
2023-01-15T05:30:50.840Z,0.00
2023-01-15T05:31:50.707Z,0.00
2023-01-15T05:32:50.697Z,0.00
2023-01-15T05:33:50.683Z,0.00
2023-01-15T05:34:50.695Z,0.00
2023-01-15T05:35:50.661Z,0.00
2023-01-15T05:36:50.647Z,0.00
2023-01-15T05:37:50.637Z,0.00
2023-01-15T05:38:50.631Z,0.00
2023-01-15T05:39:50.644Z,0.00
2023-01-15T05:40:50.612Z,0.00
2023-01-15T05:41:50.869Z,0.00
2023-01-15T05:42:50.586Z,0.00
2023-01-15T05:43:50.596Z,0.00
2023-01-15T05:44:50.561Z,0.00
2023-01-15T05:45:50.552Z,0.00
2023-01-15T05:46:50.563Z,0.00
2023-01-15T05:47:50.528Z,0.00
2023-01-15T05:48:50.519Z,0.00
2023-01-15T05:49:50.531Z,0.00
2023-01-15T05:50:50.494Z,0.00
2023-01-15T05:51:50.525Z,0.00
2023-01-15T05:52:50.484Z,0.00
2023-01-15T05:53:50.470Z,0.00
2023-01-15T05:54:50.453Z,0.00
2023-01-15T05:55:50.446Z,0.00
2023-01-15T05:56:50.453Z,0.00
2023-01-15T05:57:50.419Z,0.00
2023-01-15T05:58:50.412Z,0.00
2023-01-15T05:59:50.425Z,0.00
2023-01-15T06:00:50.389Z,0.00
2023-01-15T06:01:50.384Z,0.00
2023-01-15T06:02:50.387Z,0.00
2023-01-15T06:03:50.408Z,0.00
2023-01-15T06:04:50.368Z,0.00
2023-01-15T06:05:50.333Z,0.00
2023-01-15T06:06:50.335Z,0.00
2023-01-15T06:07:50.316Z,0.00
2023-01-15T06:08:50.308Z,0.00
2023-01-15T06:09:50.350Z,0.00
2023-01-15T06:10:50.276Z,0.00
2023-01-15T06:11:50.271Z,0.00
2023-01-15T06:12:50.263Z,0.00
2023-01-15T06:13:50.248Z,0.00
2023-01-15T06:14:50.263Z,0.00
2023-01-15T06:15:50.304Z,0.00
2023-01-15T06:16:50.234Z,0.00
2023-01-15T06:17:50.224Z,0.00
2023-01-15T06:18:50.195Z,0.00
2023-01-15T06:19:50.185Z,0.00
2023-01-15T06:20:50.172Z,0.00
2023-01-15T06:21:50.181Z,0.00
2023-01-15T06:22:50.156Z,0.00
2023-01-15T06:23:50.158Z,0.00
2023-01-15T06:24:50.132Z,0.00
2023-01-15T06:25:50.119Z,0.00
2023-01-15T06:26:50.132Z,0.00
2023-01-15T06:27:50.101Z,0.00
2023-01-15T06:28:50.117Z,0.00
2023-01-15T06:29:50.093Z,0.00
2023-01-15T06:30:50.066Z,0.00
2023-01-15T06:31:50.241Z,0.00
2023-01-15T06:32:50.046Z,0.00
2023-01-15T06:33:50.058Z,0.00
2023-01-15T06:34:50.052Z,0.00
2023-01-15T06:35:50.032Z,0.00
2023-01-15T06:36:50.012Z,0.00
2023-01-15T06:37:49.992Z,0.00
2023-01-15T06:38:49.991Z,0.00
2023-01-15T06:39:49.994Z,0.00
2023-01-15T06:40:49.959Z,0.00
2023-01-15T06:41:49.950Z,0.00
2023-01-15T06:42:49.957Z,0.00
2023-01-15T06:43:49.923Z,0.00
2023-01-15T06:44:49.943Z,0.00
2023-01-15T06:45:49.900Z,0.00
2023-01-15T06:46:49.930Z,0.00
2023-01-15T06:47:49.880Z,0.00
2023-01-15T06:48:49.870Z,0.00
2023-01-15T06:49:49.886Z,0.00
2023-01-15T06:50:49.848Z,0.00
2023-01-15T06:51:49.835Z,0.00
2023-01-15T06:52:49.832Z,0.00
2023-01-15T06:53:49.843Z,0.00
2023-01-15T06:54:49.825Z,0.00
2023-01-15T06:55:49.819Z,0.00
2023-01-15T06:56:49.782Z,0.00
2023-01-15T06:57:49.779Z,0.00
2023-01-15T06:58:49.767Z,0.00
2023-01-15T06:59:49.755Z,0.00
2023-01-15T07:00:49.833Z,0.00
2023-01-15T07:01:49.851Z,0.00
2023-01-15T07:02:49.724Z,0.00
2023-01-15T07:03:49.754Z,0.00
2023-01-15T07:04:49.757Z,4.00
2023-01-15T07:05:49.692Z,4.00
2023-01-15T07:06:49.711Z,4.00
2023-01-15T07:07:49.682Z,4.00
2023-01-15T07:08:49.661Z,4.00
2023-01-15T07:09:49.678Z,0.00
2023-01-15T07:10:49.638Z,4.00
2023-01-15T07:11:49.939Z,4.00
2023-01-15T07:12:49.613Z,4.00
2023-01-15T07:13:49.605Z,4.00
2023-01-15T07:14:49.616Z,4.00
2023-01-15T07:15:49.579Z,8.00
2023-01-15T07:16:49.617Z,8.00
2023-01-15T07:17:49.568Z,8.00
2023-01-15T07:18:49.557Z,8.00
2023-01-15T07:19:49.546Z,8.00
2023-01-15T07:20:49.530Z,4.00
2023-01-15T07:21:49.517Z,8.00
2023-01-15T07:22:49.532Z,8.00
2023-01-15T07:23:49.495Z,12.00
2023-01-15T07:24:49.488Z,8.00
2023-01-15T07:25:49.512Z,12.00
2023-01-15T07:26:49.465Z,8.00
2023-01-15T07:27:49.479Z,12.00
2023-01-15T07:28:49.445Z,12.00
2023-01-15T07:29:49.448Z,12.00
2023-01-15T07:30:49.458Z,12.00
2023-01-15T07:31:49.406Z,12.00
2023-01-15T07:32:49.401Z,12.00
2023-01-15T07:33:49.406Z,12.00
2023-01-15T07:34:49.380Z,12.00
2023-01-15T07:35:49.388Z,16.00
2023-01-15T07:36:49.364Z,16.00
2023-01-15T07:37:49.344Z,16.00
2023-01-15T07:38:49.365Z,16.00
2023-01-15T07:39:49.327Z,16.00
2023-01-15T07:40:49.314Z,20.00
2023-01-15T07:41:49.306Z,20.00
2023-01-15T07:42:49.293Z,20.00
2023-01-15T07:43:49.283Z,24.00
2023-01-15T07:44:49.287Z,24.00
2023-01-15T07:45:49.278Z,24.00
2023-01-15T07:46:49.245Z,28.00
2023-01-15T07:47:49.240Z,28.00
2023-01-15T07:48:49.230Z,28.00
2023-01-15T07:49:49.257Z,28.00
2023-01-15T07:50:49.206Z,28.00
2023-01-15T07:51:49.201Z,32.00
2023-01-15T07:52:50.823Z,32.00
2023-01-15T07:53:49.216Z,28.00
2023-01-15T07:54:49.160Z,32.00
2023-01-15T07:55:49.150Z,32.00
2023-01-15T07:56:49.139Z,32.00
2023-01-15T07:57:49.152Z,32.00
2023-01-15T07:58:49.161Z,32.00
2023-01-15T07:59:49.161Z,40.00
2023-01-15T08:00:49.125Z,40.00
2023-01-15T08:01:49.254Z,44.00
2023-01-15T08:02:49.073Z,44.00
2023-01-15T08:03:49.115Z,44.00
2023-01-15T08:04:49.073Z,44.00
2023-01-15T08:05:49.043Z,44.00
2023-01-15T08:06:49.030Z,44.00
2023-01-15T08:07:49.057Z,48.00
2023-01-15T08:08:49.034Z,48.00
2023-01-15T08:09:49.007Z,48.00
2023-01-15T08:10:48.988Z,48.00
2023-01-15T08:11:48.990Z,48.00
2023-01-15T08:12:48.967Z,56.00
2023-01-15T08:13:48.983Z,60.00
2023-01-15T08:14:48.946Z,64.00
2023-01-15T08:15:48.938Z,64.00
2023-01-15T08:16:48.928Z,68.00
2023-01-15T08:17:48.917Z,76.00
2023-01-15T08:18:48.921Z,84.00
2023-01-15T08:19:48.895Z,92.00
2023-01-15T08:20:48.879Z,104.00
2023-01-15T08:21:48.875Z,116.00
2023-01-15T08:22:48.880Z,104.00
2023-01-15T08:23:48.856Z,96.00
2023-01-15T08:24:48.868Z,88.00
2023-01-15T08:25:48.841Z,88.00
2023-01-15T08:26:48.819Z,96.00
2023-01-15T08:27:48.852Z,100.00
2023-01-15T08:28:48.801Z,96.00
2023-01-15T08:29:48.785Z,88.00
2023-01-15T08:30:48.810Z,88.00
2023-01-15T08:31:48.802Z,84.00
2023-01-15T08:32:48.779Z,88.00
2023-01-15T08:33:48.742Z,88.00
2023-01-15T08:34:48.734Z,92.00
2023-01-15T08:35:48.724Z,96.00
2023-01-15T08:36:48.709Z,100.00
2023-01-15T08:37:48.719Z,100.00
2023-01-15T08:38:48.707Z,104.00
2023-01-15T08:39:48.682Z,100.00
2023-01-15T08:40:48.676Z,104.00
2023-01-15T08:41:48.659Z,108.00
2023-01-15T08:42:48.660Z,112.00
2023-01-15T08:43:48.663Z,112.00
2023-01-15T08:44:48.626Z,120.00
2023-01-15T08:45:48.643Z,124.00
2023-01-15T08:46:48.607Z,124.00
2023-01-15T08:47:48.589Z,120.00
2023-01-15T08:48:48.596Z,132.00
2023-01-15T08:49:48.571Z,136.00
2023-01-15T08:50:48.584Z,144.00
2023-01-15T08:51:48.550Z,148.00
2023-01-15T08:52:48.543Z,152.00
2023-01-15T08:53:48.533Z,148.00
2023-01-15T08:54:48.517Z,144.00
2023-01-15T08:55:48.539Z,144.00
2023-01-15T08:56:48.491Z,144.00
2023-01-15T08:57:48.486Z,156.00
2023-01-15T08:58:48.590Z,168.00
2023-01-15T08:59:48.465Z,168.00
2023-01-15T09:00:48.522Z,176.00
2023-01-15T09:01:48.572Z,192.00
2023-01-15T09:02:50.161Z,192.00
2023-01-15T09:03:48.429Z,180.00
2023-01-15T09:04:48.500Z,160.00
2023-01-15T09:05:48.409Z,152.00
2023-01-15T09:06:48.394Z,152.00
2023-01-15T09:07:48.387Z,160.00
2023-01-15T09:08:48.383Z,172.00
2023-01-15T09:09:48.392Z,176.00
2023-01-15T09:10:48.363Z,188.00
2023-01-15T09:11:48.352Z,196.00
2023-01-15T09:12:48.326Z,204.00
2023-01-15T09:13:48.327Z,204.00
2023-01-15T09:14:56.732Z,200.00
2023-01-15T09:15:49.295Z,200.00
2023-01-15T09:16:48.354Z,200.00
2023-01-15T09:17:48.280Z,208.00
2023-01-15T09:18:48.268Z,208.00
2023-01-15T09:19:48.286Z,224.00
2023-01-15T09:20:48.233Z,224.00
2023-01-15T09:21:48.254Z,224.00
2023-01-15T09:22:48.221Z,244.00
2023-01-15T09:23:48.211Z,280.00
2023-01-15T09:24:48.222Z,316.00
2023-01-15T09:25:48.189Z,352.00
2023-01-15T09:26:48.188Z,380.00
2023-01-15T09:27:48.166Z,392.00
2023-01-15T09:28:48.145Z,412.00
2023-01-15T09:29:48.141Z,412.00
2023-01-15T09:30:48.225Z,420.00
2023-01-15T09:31:48.145Z,420.00
2023-01-15T09:32:48.104Z,400.00
2023-01-15T09:33:48.119Z,388.00
2023-01-15T09:34:48.083Z,384.00
2023-01-15T09:35:48.073Z,376.00
2023-01-15T09:36:48.062Z,344.00
2023-01-15T09:37:48.059Z,316.00
2023-01-15T09:38:48.063Z,296.00
2023-01-15T09:39:48.049Z,280.00
2023-01-15T09:40:48.045Z,264.00
2023-01-15T09:41:48.011Z,260.00
2023-01-15T09:42:47.999Z,252.00
2023-01-15T09:43:51.182Z,252.00
2023-01-15T09:44:47.976Z,248.00
2023-01-15T09:45:48.091Z,232.00
2023-01-15T09:46:47.953Z,224.00
2023-01-15T09:47:47.967Z,224.00
2023-01-15T09:48:47.963Z,232.00
2023-01-15T09:49:47.926Z,256.00
2023-01-15T09:50:47.917Z,256.00
2023-01-15T09:51:47.925Z,256.00
2023-01-15T09:52:47.917Z,264.00
2023-01-15T09:53:47.886Z,276.00
2023-01-15T09:54:47.869Z,292.00
2023-01-15T09:55:47.860Z,300.00
2023-01-15T09:56:47.856Z,316.00
2023-01-15T09:57:47.863Z,340.00
2023-01-15T09:58:47.846Z,348.00
2023-01-15T09:59:47.820Z,360.00
2023-01-15T10:00:47.849Z,372.00
2023-01-15T10:01:47.797Z,404.00
2023-01-15T10:02:47.791Z,444.00
2023-01-15T10:03:47.844Z,472.00
2023-01-15T10:04:47.764Z,480.00
2023-01-15T10:05:47.759Z,480.00
2023-01-15T10:06:47.770Z,488.00
2023-01-15T10:07:47.729Z,488.00
2023-01-15T10:08:47.718Z,492.00
2023-01-15T10:09:47.717Z,504.00
2023-01-15T10:10:47.715Z,512.00
2023-01-15T10:11:47.688Z,512.00
2023-01-15T10:12:47.693Z,504.00
2023-01-15T10:13:47.689Z,488.00
2023-01-15T10:14:47.662Z,472.00
2023-01-15T10:15:47.679Z,452.00
2023-01-15T10:16:47.632Z,448.00
2023-01-15T10:17:48.733Z,448.00
2023-01-15T10:18:47.615Z,464.00
2023-01-15T10:19:47.630Z,456.00
2023-01-15T10:20:47.618Z,440.00
2023-01-15T10:21:47.589Z,428.00
2023-01-15T10:22:47.575Z,420.00
2023-01-15T10:23:47.570Z,428.00
2023-01-15T10:24:47.547Z,444.00
2023-01-15T10:25:47.541Z,468.00
2023-01-15T10:26:47.553Z,496.00
2023-01-15T10:27:47.514Z,516.00
2023-01-15T10:28:47.614Z,496.00
2023-01-15T10:29:47.496Z,460.00
2023-01-15T10:30:47.494Z,456.00
2023-01-15T10:31:47.501Z,496.00
2023-01-15T10:33:01.057Z,544.00
2023-01-15T10:33:48.452Z,556.00
2023-01-15T10:34:47.438Z,548.00
2023-01-15T10:35:47.433Z,576.00
2023-01-15T10:36:47.442Z,596.00
2023-01-15T10:37:47.416Z,616.00
2023-01-15T10:38:47.421Z,632.00
2023-01-15T10:39:47.391Z,644.00
2023-01-15T10:40:47.375Z,628.00
2023-01-15T10:41:47.388Z,588.00
2023-01-15T10:42:47.379Z,524.00
2023-01-15T10:43:47.364Z,480.00
2023-01-15T10:44:47.337Z,456.00
2023-01-15T10:45:47.364Z,436.00
2023-01-15T10:46:47.316Z,416.00
2023-01-15T10:47:47.327Z,388.00
2023-01-15T10:48:47.292Z,380.00
2023-01-15T10:49:47.282Z,376.00
2023-01-15T10:50:47.266Z,368.00
2023-01-15T10:51:47.261Z,344.00
2023-01-15T10:52:47.280Z,348.00
2023-01-15T10:53:47.240Z,344.00
2023-01-15T10:54:47.226Z,344.00
2023-01-15T10:55:47.222Z,344.00
2023-01-15T10:56:47.208Z,352.00
2023-01-15T10:57:47.219Z,364.00
2023-01-15T10:58:47.181Z,376.00
2023-01-15T10:59:47.170Z,392.00
2023-01-15T11:00:47.173Z,424.00
2023-01-15T11:01:47.234Z,468.00
2023-01-15T11:02:47.234Z,520.00
2023-01-15T11:03:47.131Z,556.00
2023-01-15T11:04:47.136Z,564.00
2023-01-15T11:05:47.146Z,560.00
2023-01-15T11:06:47.093Z,544.00
2023-01-15T11:08:12.955Z,528.00
2023-01-15T11:09:08.646Z,520.00
2023-01-15T11:09:48.071Z,508.00
2023-01-15T11:10:47.054Z,496.00
2023-01-15T11:11:47.043Z,484.00
2023-01-15T11:12:47.039Z,484.00
2023-01-15T11:13:47.055Z,480.00
2023-01-15T11:14:47.007Z,460.00
2023-01-15T11:15:47.026Z,468.00
2023-01-15T11:16:46.985Z,460.00
2023-01-15T11:17:46.977Z,444.00
2023-01-15T11:18:46.989Z,432.00
2023-01-15T11:19:46.966Z,412.00
2023-01-15T11:20:46.948Z,364.00
2023-01-15T11:21:46.939Z,332.00
2023-01-15T11:22:46.922Z,316.00
2023-01-15T11:23:46.937Z,316.00
2023-01-15T11:24:46.900Z,320.00
2023-01-15T11:25:46.916Z,312.00
2023-01-15T11:26:46.880Z,308.00
2023-01-15T11:27:46.875Z,320.00
2023-01-15T11:28:46.857Z,352.00
2023-01-15T11:29:46.853Z,400.00
2023-01-15T11:30:46.923Z,424.00
2023-01-15T11:31:46.845Z,424.00
2023-01-15T11:32:46.817Z,416.00
2023-01-15T11:33:46.817Z,352.00
2023-01-15T11:34:46.794Z,312.00
2023-01-15T11:35:46.813Z,308.00
2023-01-15T11:36:46.770Z,320.00
2023-01-15T11:37:46.759Z,344.00
2023-01-15T11:38:46.745Z,372.00
2023-01-15T11:39:46.741Z,376.00
2023-01-15T11:40:48.768Z,360.00
2023-01-15T11:41:46.721Z,352.00
2023-01-15T11:42:46.702Z,364.00
2023-01-15T11:43:46.699Z,368.00
2023-01-15T11:44:46.681Z,352.00
2023-01-15T11:45:46.700Z,360.00
2023-01-15T11:46:46.785Z,384.00
2023-01-15T11:47:46.671Z,388.00
2023-01-15T11:48:46.638Z,372.00
2023-01-15T11:49:46.638Z,356.00
2023-01-15T11:50:46.648Z,352.00
2023-01-15T11:51:46.610Z,340.00
2023-01-15T11:52:46.604Z,324.00
2023-01-15T11:53:46.611Z,312.00
2023-01-15T11:54:46.584Z,296.00
2023-01-15T11:55:46.583Z,280.00
2023-01-15T11:56:46.591Z,284.00
2023-01-15T11:57:46.541Z,296.00
2023-01-15T11:58:46.551Z,308.00
2023-01-15T11:59:46.520Z,296.00
2023-01-15T12:00:46.514Z,280.00
2023-01-15T12:01:46.520Z,276.00
2023-01-15T12:02:46.511Z,288.00
2023-01-15T12:03:46.714Z,300.00
2023-01-15T12:04:46.538Z,320.00
2023-01-15T12:05:46.454Z,336.00
2023-01-15T12:06:46.448Z,336.00
2023-01-15T12:07:46.444Z,340.00
2023-01-15T12:08:46.429Z,344.00
2023-01-15T12:09:46.427Z,352.00
2023-01-15T12:10:46.400Z,364.00
2023-01-15T12:11:46.391Z,352.00
2023-01-15T12:12:46.384Z,360.00
2023-01-15T12:13:46.390Z,384.00
2023-01-15T12:14:46.359Z,388.00
2023-01-15T12:15:46.398Z,376.00
2023-01-15T12:16:46.342Z,356.00
2023-01-15T12:17:46.324Z,340.00
2023-01-15T12:18:46.345Z,336.00
2023-01-15T12:19:46.312Z,340.00
2023-01-15T12:20:46.295Z,360.00
2023-01-15T12:21:46.294Z,372.00
2023-01-15T12:22:46.270Z,384.00
2023-01-15T12:23:46.259Z,400.00
2023-01-15T12:24:46.268Z,416.00
2023-01-15T12:25:46.237Z,448.00
2023-01-15T12:26:46.235Z,468.00
2023-01-15T12:27:46.215Z,492.00
2023-01-15T12:28:46.223Z,488.00
2023-01-15T12:29:46.249Z,500.00
2023-01-15T12:30:46.183Z,548.00
2023-01-15T12:31:46.195Z,560.00
2023-01-15T12:32:46.173Z,528.00
2023-01-15T12:33:46.153Z,496.00
2023-01-15T12:34:46.182Z,464.00
2023-01-15T12:35:46.148Z,464.00
2023-01-15T12:37:46.116Z,528.00
2023-01-15T12:38:46.100Z,488.00
2023-01-15T12:39:46.108Z,436.00
2023-01-15T12:40:46.077Z,440.00
2023-01-15T12:41:46.063Z,488.00
2023-01-15T12:42:46.061Z,588.00
2023-01-15T12:43:46.132Z,656.00
2023-01-15T12:44:46.065Z,624.00
2023-01-15T12:45:46.061Z,548.00
2023-01-15T12:46:46.148Z,484.00
2023-01-15T12:47:46.007Z,476.00
2023-01-15T12:48:45.995Z,472.00
2023-01-15T12:49:45.978Z,464.00
2023-01-15T12:50:45.978Z,452.00
2023-01-15T12:51:45.977Z,444.00
2023-01-15T12:52:45.951Z,452.00
2023-01-15T12:53:45.936Z,420.00
2023-01-15T12:54:45.945Z,348.00
2023-01-15T12:55:45.914Z,304.00
2023-01-15T12:56:45.916Z,288.00
2023-01-15T12:57:45.914Z,288.00
2023-01-15T12:58:45.884Z,284.00
2023-01-15T12:59:45.868Z,276.00